Pineville, MO

11:07 AM CDT on August 27, 2014 (GMT -0500)
Rogers Municipal-Carter | Change Station
CLOSE
Current Station
Airport
Location: Rogers,
Elevation: 1358 ft
Nearby Weather Stations
Active Advisory: Heat Advisory Active Notice: Public Information Statement

Elev 1358 ft 36.37 °N, 94.11 °W | Updated 10 minutes ago

Scattered Clouds
Scattered Clouds
86 °F
Feels Like 89 °F
N
6
Wind Variable Wind from Variable

Today
High -- | Low -- °F
--% Chance of Precip.
Yesterday
High -- | Low -- °F
Precip. -- in
6:44 AM 7:52 PM
Waxing Crescent, 4% visible
Pressure 30.12 in
Visibility 10.0 miles
Clouds Few 4900 ft
Scattered Clouds 6000 ft
Heat Index 89 °F
Dew Point 68 °F
Humidity 55%
Rainfall 0.00 in
Snow Depth Not available.
UV 6 out of 12
Pollen 10.90 out of 12
Air Quality Not available.
Flu Activity Not available.
METAR KROG 271557Z VRB05KT 10SM FEW049 SCT060 30/20 A3017 RMK AO2 SLP198 T03000200

More Conditions Fewer Conditions

Pressure 30.12 in
Visibility 10.0 miles
Clouds Few 4900 ft
Scattered Clouds 6000 ft
Heat Index 89 °F
Dew Point 68 °F
Humidity 55%
Rainfall 0.00 in
Snow Depth Not available.
UV 6 out of 12
Pollen 10.90 out of 12
Air Quality Not available.
Flu Activity Not available.
METAR KROG 271557Z VRB05KT 10SM FEW049 SCT060 30/20 A3017 RMK AO2 SLP198 T03000200

More Conditions Fewer Conditions

10-Day Weather Forecast

Almanac

Astronomy

Aug. 27, 2014 Rise Set
Actual Time 6:44 AM CDT 7:52 PM CDT
Civil Twilight 6:18 AM CDT 8:19 PM CDT
Nautical Twilight 5:46 AM CDT 8:50 PM CDT
Astronomical Twilight 5:13 AM CDT 9:23 PM CDT
Moon 8:37 AM CDT 8:50 PM CDT
Length of Visible Light 14h 01m
Length of Day
13h 07m
Tomorrow will be 2m 12s shorter.
Waxing Crescent, 4% of the Moon is Illuminated
Today
Waxing Crescent
Sep 2
First Quarter
Sep 8
Full
Sep 15
Last Quarter
Sep 24
New

Today's Extremes

State Highs State Lows

Community

WunderPhotos

Upload Photos

1,747,715 photos uploaded!

Nearby

Snow Depth

Station Depth Elevation
No new snow has been reported.

Earthquake Activity

City Distance Mag. Time & Date
No recent earthquake activity has been reported nearby.
Minimum magnitude displayed is 2.5.

Coastal Water Temperatures

Place Temperature
No Stations Reporting

Nearby Weather Stations